Cheyenne — WDE9553 — position and weather

sailwx.info

Track history (hours):
 
Tides and Currents Weather Stations Pressure Air Temp Water Temp Dewpoint Dewpoint Depression Visibility Wind Speed Wind Dir Waves Ship Positions

Cheyenne

Owner: DMC MARINE, LLC, HILLSIDE, NJ. More information available from US FCC via Universal Licensing System and Coast Guard Vessel Documentation Center.

Last reported at 2015-Aug-25 15:32 UTC. Time now 2015-Sep-02 21:54 UTC.
Position N 43°07' W 079°12'.
Warning: this ship's position is 8 days out of date.

Length 30 m; draft 4 m.

Type: Towing. MMSI: 367418570.

Date/timePositionNaut miles runAvg speedWind from/ knotsBaromVisibWave heightAir tempDewpointWater temp
2015-Aug-25 15:32N 43°07' W 079°12'1 0.7
2015-Aug-25 14:33N 43°08' W 079°12'2 1.6
2015-Aug-25 13:33N 43°10' W 079°12'3 3.4
2015-Aug-25 12:33N 43°13' W 079°13'1 0.6
2015-Aug-25 11:33N 43°14' W 079°13'0 0.0
2015-Aug-25 10:33N 43°14' W 079°13'0 0.0
2015-Aug-25 09:33N 43°14' W 079°13'0 0.0
2015-Aug-25 08:33N 43°14' W 079°13'0 0.0
2015-Aug-25 07:33N 43°14' W 079°13'0 0.0
2015-Aug-25 06:33N 43°14' W 079°13'0 0.0
2015-Aug-25 05:33N 43°14' W 079°13'0 0.0
2015-Aug-25 04:33N 43°14' W 079°13'0 0.0
2015-Aug-25 03:33N 43°14' W 079°13'0 0.0
2015-Aug-25 02:33N 43°14' W 079°13'0 0.0
2015-Aug-25 01:33N 43°14' W 079°13'0 0.0
2015-Aug-25 00:33N 43°14' W 079°13'0 0.0
2015-Aug-24 23:33N 43°14' W 079°13'0 0.0
2015-Aug-24 22:33N 43°14' W 079°13'0 0.0
2015-Aug-24 21:33N 43°14' W 079°13'0 0.2
2015-Aug-24 20:33N 43°14' W 079°13'4 3.6
2015-Aug-24 19:33N 43°16' W 079°10'9 8.9
2015-Aug-24 18:33N 43°21' W 078°59'  
2015-Aug-20 10:22N 40°54' W 073°56'7 8.3
2015-Aug-20 09:33N 40°48' W 073°59'8 7.8
2015-Aug-20 08:34N 40°41' W 074°04'0 0.1
2015-Aug-20 07:33N 40°41' W 074°05'0 0.0
2015-Aug-20 06:33N 40°41' W 074°05'0 0.0
2015-Aug-20 05:34N 40°41' W 074°05'0 0.0
2015-Aug-20 04:33N 40°41' W 074°05'0 0.0
2015-Aug-20 03:33N 40°41' W 074°05'0 0.0
2015-Aug-20 02:34N 40°41' W 074°05'0 0.0
2015-Aug-20 01:33N 40°41' W 074°05'0 0.0
2015-Aug-20 00:34N 40°41' W 074°05'0 0.0
2015-Aug-19 23:33N 40°41' W 074°05'0 0.0
2015-Aug-19 22:33N 40°41' W 074°05'0 0.0
2015-Aug-19 21:33N 40°41' W 074°05'0 0.0
2015-Aug-19 20:34N 40°41' W 074°05'0 0.0
2015-Aug-19 19:34N 40°41' W 074°05'3 2.9
2015-Aug-19 18:32N 40°39' W 074°07'4 0.5
2015-Aug-19 11:08N 40°42' W 074°09'0 0.0
2015-Aug-19 05:24N 40°42' W 074°09'0 0.0
2015-Aug-19 04:33N 40°42' W 074°09'0 0.0
2015-Aug-19 03:16N 40°42' W 074°09'0 0.0
2015-Aug-19 02:32N 40°42' W 074°09'0 0.0
2015-Aug-19 01:29N 40°42' W 074°09'0 0.0
2015-Aug-19 00:33N 40°42' W 074°09'0 0.0
2015-Aug-18 23:33N 40°42' W 074°09'0 0.0
2015-Aug-18 22:33N 40°42' W 074°09'0 0.0
2015-Aug-18 21:31N 40°42' W 074°09'1 1.2
2015-Aug-18 20:33N 40°41' W 074°09'0 0.0
2015-Aug-18 19:33N 40°41' W 074°09'0 0.0
2015-Aug-18 18:33N 40°41' W 074°09'0 0.0
2015-Aug-18 17:33N 40°41' W 074°09'0 0.0
2015-Aug-18 16:33N 40°41' W 074°09'1 0.9
2015-Aug-18 15:33N 40°41' W 074°10'1 0.9
2015-Aug-18 14:34N 40°41' W 074°09'0 0.0
2015-Aug-18 13:34N 40°41' W 074°09'1 1.1
2015-Aug-18 12:34N 40°40' W 074°08'1 1.1
2015-Aug-18 11:34N 40°41' W 074°09'0 0.1
2015-Aug-18 10:34N 40°41' W 074°09'0 0.1
2015-Aug-18 09:33N 40°41' W 074°09'0 0.0
2015-Aug-18 08:33N 40°41' W 074°09'0 0.0
2015-Aug-18 07:33N 40°41' W 074°09'0 0.0
2015-Aug-18 06:33N 40°41' W 074°09'0 0.0
2015-Aug-18 05:33N 40°41' W 074°09'0 0.0
2015-Aug-18 04:32N 40°41' W 074°09'0 0.0
2015-Aug-18 04:11N 40°41' W 074°09'0 0.1
2015-Aug-18 04:08N 40°41' W 074°09'0 0.0
2015-Aug-18 03:33N 40°41' W 074°09'0 0.0
2015-Aug-18 02:33N 40°41' W 074°09'0 0.0
2015-Aug-18 01:33N 40°41' W 074°09'0 0.0
2015-Aug-18 00:34N 40°41' W 074°09'0 0.0
2015-Aug-17 23:34N 40°41' W 074°09'0 0.0
2015-Aug-17 22:33N 40°41' W 074°09'0 0.0
2015-Aug-17 21:33N 40°41' W 074°09'0 0.1
2015-Aug-17 20:32N 40°41' W 074°09'0 0.1
2015-Aug-17 19:33N 40°41' W 074°09'0 0.0
2015-Aug-17 18:30N 40°41' W 074°09'0 0.0
2015-Aug-17 17:34N 40°41' W 074°09'0 0.0
2015-Aug-17 16:34N 40°41' W 074°09'0 0.0
2015-Aug-17 15:33N 40°41' W 074°09'0 0.0
2015-Aug-17 14:33N 40°41' W 074°09'0 0.1
2015-Aug-17 13:33N 40°41' W 074°09'0 0.3
2015-Aug-17 12:34N 40°41' W 074°09'0 0.3
2015-Aug-17 11:33N 40°41' W 074°09'0 0.0
2015-Aug-17 10:34N 40°41' W 074°09'0 0.0
2015-Aug-17 09:33N 40°41' W 074°09'0 0.0
2015-Aug-17 08:33N 40°41' W 074°09'0 0.0
2015-Aug-17 07:34N 40°41' W 074°09'0 0.0
2015-Aug-17 06:33N 40°41' W 074°09'0 0.0
2015-Aug-17 05:34N 40°41' W 074°09'0 0.0
2015-Aug-17 04:33N 40°41' W 074°09'0 0.0
2015-Aug-17 03:33N 40°41' W 074°09'0 0.0
2015-Aug-17 02:34N 40°41' W 074°09'0 0.0
2015-Aug-17 01:34N 40°41' W 074°09'0 0.0
2015-Aug-17 00:33N 40°41' W 074°09'0 0.0
2015-Aug-16 23:34N 40°41' W 074°09'0 0.0
2015-Aug-16 22:33N 40°41' W 074°09'0 0.0
2015-Aug-16 21:34N 40°41' W 074°09'0 0.0
2015-Aug-16 20:34N 40°41' W 074°09'0 0.0
2015-Aug-16 19:34N 40°41' W 074°09'0 0.2
2015-Aug-16 18:34N 40°41' W 074°09'1 1.0
2015-Aug-16 17:33N 40°40' W 074°08'1 1.1
2015-Aug-16 16:33N 40°41' W 074°09'0 0.0
2015-Aug-16 15:34N 40°41' W 074°09'0 0.0
2015-Aug-16 14:34N 40°41' W 074°09'0 0.0
2015-Aug-16 13:34N 40°41' W 074°09'0 0.0
2015-Aug-16 12:33N 40°41' W 074°09'0 0.1
2015-Aug-16 11:34N 40°41' W 074°09'0 0.1
2015-Aug-16 10:33N 40°41' W 074°09'0 0.1
2015-Aug-16 09:34N 40°41' W 074°09'1 1.2
2015-Aug-16 08:34N 40°42' W 074°09'0 0.0
2015-Aug-16 07:33N 40°42' W 074°09'0 0.0
2015-Aug-16 06:34N 40°42' W 074°09'0 0.0
2015-Aug-16 05:34N 40°42' W 074°09'0 0.0
2015-Aug-16 04:33N 40°42' W 074°09'0 0.0
2015-Aug-16 03:34N 40°42' W 074°09'0 0.0
2015-Aug-16 02:33N 40°42' W 074°09'0 0.0
2015-Aug-16 01:34N 40°42' W 074°09'0 0.0
2015-Aug-16 00:34N 40°42' W 074°09'0 0.0
2015-Aug-15 23:33N 40°42' W 074°09'0 0.0
2015-Aug-15 22:33N 40°42' W 074°09'0 0.0
2015-Aug-15 21:34N 40°42' W 074°09'0 0.0
2015-Aug-15 20:33N 40°42' W 074°09'1 1.2
2015-Aug-15 19:34N 40°41' W 074°09'0 0.0
2015-Aug-15 18:33N 40°41' W 074°09'0 0.0
2015-Aug-15 17:33N 40°41' W 074°09'0 0.0
2015-Aug-15 16:33N 40°41' W 074°09'0 0.0
2015-Aug-15 15:34N 40°41' W 074°09'  
Track history (hours):
 
Tides and Currents Weather Stations Pressure Air Temp Water Temp Dewpoint Dewpoint Depression Visibility Wind Speed Wind Dir Waves Ship Positions

Cheyenne

Owner: DMC MARINE, LLC, HILLSIDE, NJ. More information available from US FCC via Universal Licensing System and Coast Guard Vessel Documentation Center.

Last reported at 2015-Aug-25 15:32 UTC. Time now 2015-Sep-02 21:54 UTC.
Position N 43°07' W 079°12'.
Warning: this ship's position is 8 days out of date.

Length 30 m; draft 4 m.

Type: Towing. MMSI: 367418570.

Date/timePositionNaut miles runAvg speedWind from/ knotsBaromVisibWave heightAir tempDewpointWater temp
2015-Aug-25 15:32N 43°07' W 079°12'1 0.7
2015-Aug-25 14:33N 43°08' W 079°12'2 1.6
2015-Aug-25 13:33N 43°10' W 079°12'3 3.4
2015-Aug-25 12:33N 43°13' W 079°13'1 0.6
2015-Aug-25 11:33N 43°14' W 079°13'0 0.0
2015-Aug-25 10:33N 43°14' W 079°13'0 0.0
2015-Aug-25 09:33N 43°14' W 079°13'0 0.0
2015-Aug-25 08:33N 43°14' W 079°13'0 0.0
2015-Aug-25 07:33N 43°14' W 079°13'0 0.0
2015-Aug-25 06:33N 43°14' W 079°13'0 0.0
2015-Aug-25 05:33N 43°14' W 079°13'0 0.0
2015-Aug-25 04:33N 43°14' W 079°13'0 0.0
2015-Aug-25 03:33N 43°14' W 079°13'0 0.0
2015-Aug-25 02:33N 43°14' W 079°13'0 0.0
2015-Aug-25 01:33N 43°14' W 079°13'0 0.0
2015-Aug-25 00:33N 43°14' W 079°13'0 0.0
2015-Aug-24 23:33N 43°14' W 079°13'0 0.0
2015-Aug-24 22:33N 43°14' W 079°13'0 0.0
2015-Aug-24 21:33N 43°14' W 079°13'0 0.2
2015-Aug-24 20:33N 43°14' W 079°13'4 3.6
2015-Aug-24 19:33N 43°16' W 079°10'9 8.9
2015-Aug-24 18:33N 43°21' W 078°59'  
2015-Aug-20 10:22N 40°54' W 073°56'7 8.3
2015-Aug-20 09:33N 40°48' W 073°59'8 7.8
2015-Aug-20 08:34N 40°41' W 074°04'0 0.1
2015-Aug-20 07:33N 40°41' W 074°05'0 0.0
2015-Aug-20 06:33N 40°41' W 074°05'0 0.0
2015-Aug-20 05:34N 40°41' W 074°05'0 0.0
2015-Aug-20 04:33N 40°41' W 074°05'0 0.0
2015-Aug-20 03:33N 40°41' W 074°05'0 0.0
2015-Aug-20 02:34N 40°41' W 074°05'0 0.0
2015-Aug-20 01:33N 40°41' W 074°05'0 0.0
2015-Aug-20 00:34N 40°41' W 074°05'0 0.0
2015-Aug-19 23:33N 40°41' W 074°05'0 0.0
2015-Aug-19 22:33N 40°41' W 074°05'0 0.0
2015-Aug-19 21:33N 40°41' W 074°05'0 0.0
2015-Aug-19 20:34N 40°41' W 074°05'0 0.0
2015-Aug-19 19:34N 40°41' W 074°05'3 2.9
2015-Aug-19 18:32N 40°39' W 074°07'4 0.5
2015-Aug-19 11:08N 40°42' W 074°09'0 0.0
2015-Aug-19 05:24N 40°42' W 074°09'0 0.0
2015-Aug-19 04:33N 40°42' W 074°09'0 0.0
2015-Aug-19 03:16N 40°42' W 074°09'0 0.0
2015-Aug-19 02:32N 40°42' W 074°09'0 0.0
2015-Aug-19 01:29N 40°42' W 074°09'0 0.0
2015-Aug-19 00:33N 40°42' W 074°09'0 0.0
2015-Aug-18 23:33N 40°42' W 074°09'0 0.0
2015-Aug-18 22:33N 40°42' W 074°09'0 0.0
2015-Aug-18 21:31N 40°42' W 074°09'1 1.2
2015-Aug-18 20:33N 40°41' W 074°09'0 0.0
2015-Aug-18 19:33N 40°41' W 074°09'0 0.0
2015-Aug-18 18:33N 40°41' W 074°09'0 0.0
2015-Aug-18 17:33N 40°41' W 074°09'0 0.0
2015-Aug-18 16:33N 40°41' W 074°09'1 0.9
2015-Aug-18 15:33N 40°41' W 074°10'1 0.9
2015-Aug-18 14:34N 40°41' W 074°09'0 0.0
2015-Aug-18 13:34N 40°41' W 074°09'1 1.1
2015-Aug-18 12:34N 40°40' W 074°08'1 1.1
2015-Aug-18 11:34N 40°41' W 074°09'0 0.1
2015-Aug-18 10:34N 40°41' W 074°09'0 0.1
2015-Aug-18 09:33N 40°41' W 074°09'0 0.0
2015-Aug-18 08:33N 40°41' W 074°09'0 0.0
2015-Aug-18 07:33N 40°41' W 074°09'0 0.0
2015-Aug-18 06:33N 40°41' W 074°09'0 0.0
2015-Aug-18 05:33N 40°41' W 074°09'0 0.0
2015-Aug-18 04:32N 40°41' W 074°09'0 0.0
2015-Aug-18 04:11N 40°41' W 074°09'0 0.1
2015-Aug-18 04:08N 40°41' W 074°09'0 0.0
2015-Aug-18 03:33N 40°41' W 074°09'0 0.0
2015-Aug-18 02:33N 40°41' W 074°09'0 0.0
2015-Aug-18 01:33N 40°41' W 074°09'0 0.0
2015-Aug-18 00:34N 40°41' W 074°09'0 0.0
2015-Aug-17 23:34N 40°41' W 074°09'0 0.0
2015-Aug-17 22:33N 40°41' W 074°09'0 0.0
2015-Aug-17 21:33N 40°41' W 074°09'0 0.1
2015-Aug-17 20:32N 40°41' W 074°09'0 0.1
2015-Aug-17 19:33N 40°41' W 074°09'0 0.0
2015-Aug-17 18:30N 40°41' W 074°09'0 0.0
2015-Aug-17 17:34N 40°41' W 074°09'0 0.0
2015-Aug-17 16:34N 40°41' W 074°09'0 0.0
2015-Aug-17 15:33N 40°41' W 074°09'0 0.0
2015-Aug-17 14:33N 40°41' W 074°09'0 0.1
2015-Aug-17 13:33N 40°41' W 074°09'0 0.3
2015-Aug-17 12:34N 40°41' W 074°09'0 0.3
2015-Aug-17 11:33N 40°41' W 074°09'0 0.0
2015-Aug-17 10:34N 40°41' W 074°09'0 0.0
2015-Aug-17 09:33N 40°41' W 074°09'0 0.0
2015-Aug-17 08:33N 40°41' W 074°09'0 0.0
2015-Aug-17 07:34N 40°41' W 074°09'0 0.0
2015-Aug-17 06:33N 40°41' W 074°09'0 0.0
2015-Aug-17 05:34N 40°41' W 074°09'0 0.0
2015-Aug-17 04:33N 40°41' W 074°09'0 0.0
2015-Aug-17 03:33N 40°41' W 074°09'0 0.0
2015-Aug-17 02:34N 40°41' W 074°09'0 0.0
2015-Aug-17 01:34N 40°41' W 074°09'0 0.0
2015-Aug-17 00:33N 40°41' W 074°09'0 0.0
2015-Aug-16 23:34N 40°41' W 074°09'0 0.0
2015-Aug-16 22:33N 40°41' W 074°09'0 0.0
2015-Aug-16 21:34N 40°41' W 074°09'0 0.0
2015-Aug-16 20:34N 40°41' W 074°09'0 0.0
2015-Aug-16 19:34N 40°41' W 074°09'0 0.2
2015-Aug-16 18:34N 40°41' W 074°09'1 1.0
2015-Aug-16 17:33N 40°40' W 074°08'1 1.1
2015-Aug-16 16:33N 40°41' W 074°09'0 0.0
2015-Aug-16 15:34N 40°41' W 074°09'0 0.0
2015-Aug-16 14:34N 40°41' W 074°09'0 0.0
2015-Aug-16 13:34N 40°41' W 074°09'0 0.0
2015-Aug-16 12:33N 40°41' W 074°09'0 0.1
2015-Aug-16 11:34N 40°41' W 074°09'0 0.1
2015-Aug-16 10:33N 40°41' W 074°09'0 0.1
2015-Aug-16 09:34N 40°41' W 074°09'1 1.2
2015-Aug-16 08:34N 40°42' W 074°09'0 0.0
2015-Aug-16 07:33N 40°42' W 074°09'0 0.0
2015-Aug-16 06:34N 40°42' W 074°09'0 0.0
2015-Aug-16 05:34N 40°42' W 074°09'0 0.0
2015-Aug-16 04:33N 40°42' W 074°09'0 0.0
2015-Aug-16 03:34N 40°42' W 074°09'0 0.0
2015-Aug-16 02:33N 40°42' W 074°09'0 0.0
2015-Aug-16 01:34N 40°42' W 074°09'0 0.0
2015-Aug-16 00:34N 40°42' W 074°09'0 0.0
2015-Aug-15 23:33N 40°42' W 074°09'0 0.0
2015-Aug-15 22:33N 40°42' W 074°09'0 0.0
2015-Aug-15 21:34N 40°42' W 074°09'0 0.0
2015-Aug-15 20:33N 40°42' W 074°09'1 1.2
2015-Aug-15 19:34N 40°41' W 074°09'0 0.0
2015-Aug-15 18:33N 40°41' W 074°09'0 0.0
2015-Aug-15 17:33N 40°41' W 074°09'0 0.0
2015-Aug-15 16:33N 40°41' W 074°09'0 0.0
2015-Aug-15 15:34N 40°41' W 074°09'  

Dump ship's entire track history